Condor Express — WDG7544 — position and weather

sailwx.info

Track history (hours):
 
Tides and Currents Weather Stations Pressure Air Temp Water Temp Dewpoint Dewpoint Depression Visibility Wind Speed Wind Dir Waves Ship Positions

Condor Express

Owner: H & M Landing Inc, Santa Barbara, CA. More information available from US FCC via Universal Licensing System and Coast Guard Vessel Documentation Center.

Last reported at 2017-Nov-24 10:58 UTC. Time now 2017-Nov-24 11:06 UTC.
Position N 34°24' W 119°42'.

Type: Ship. MMSI: 367568350.

Date/timePositionNaut miles runAvg speedWind from/ knotsBaromVisibWave heightAir tempDewpointWater temp
2017-Nov-24 10:58N 34°24' W 119°42'0 0.0
2017-Nov-24 10:28N 34°24' W 119°42'0 0.0
2017-Nov-24 09:19N 34°24' W 119°42'0 0.0
2017-Nov-24 08:16N 34°24' W 119°42'0 0.0
2017-Nov-24 06:55N 34°24' W 119°42'0 0.0
2017-Nov-24 05:31N 34°24' W 119°42'0 0.0
2017-Nov-24 05:25N 34°24' W 119°42'0 0.0
2017-Nov-24 04:52N 34°24' W 119°42'0 0.0
2017-Nov-24 04:13N 34°24' W 119°42'0 0.0
2017-Nov-24 03:49N 34°24' W 119°42'0 0.0
2017-Nov-24 03:07N 34°24' W 119°42'0 0.0
2017-Nov-24 02:40N 34°24' W 119°42'0 0.0
2017-Nov-24 02:10N 34°24' W 119°42'0 0.0
2017-Nov-24 01:07N 34°24' W 119°42'0 0.0
2017-Nov-24 00:25N 34°24' W 119°42'0 0.0
2017-Nov-23 23:49N 34°24' W 119°42'0 0.0
2017-Nov-23 20:19N 34°24' W 119°42'0 0.0
2017-Nov-23 18:25N 34°24' W 119°42'0 0.0
2017-Nov-23 16:16N 34°24' W 119°42'0 0.0
2017-Nov-23 15:40N 34°24' W 119°42'0 0.0
2017-Nov-23 15:25N 34°24' W 119°42'0 0.0
2017-Nov-23 14:55N 34°24' W 119°42'0 0.0
2017-Nov-23 10:40N 34°24' W 119°42'0 0.0
2017-Nov-23 10:16N 34°24' W 119°42'0 0.0
2017-Nov-23 08:37N 34°24' W 119°42'0 0.0
2017-Nov-23 08:07N 34°24' W 119°42'0 0.0
2017-Nov-23 07:58N 34°24' W 119°42'0 0.0
2017-Nov-23 07:16N 34°24' W 119°42'0 0.0
2017-Nov-23 05:22N 34°24' W 119°42'0 0.0
2017-Nov-23 04:52N 34°24' W 119°42'0 0.0
2017-Nov-23 04:04N 34°24' W 119°42'0 0.0
2017-Nov-23 03:55N 34°24' W 119°42'0 0.0
2017-Nov-23 03:22N 34°24' W 119°42'0 0.0
2017-Nov-23 02:58N 34°24' W 119°42'0 0.0
2017-Nov-23 02:16N 34°24' W 119°42'0 0.0
2017-Nov-23 01:52N 34°24' W 119°42'0 0.0
2017-Nov-23 00:22N 34°24' W 119°42'0 0.0
2017-Nov-22 23:28N 34°24' W 119°42'0 0.1
2017-Nov-22 22:39N 34°24' W 119°41'2 5.5
2017-Nov-22 22:22N 34°23' W 119°42'512.8
2017-Nov-22 21:57N 34°18' W 119°40'918.3
2017-Nov-22 21:29N 34°09' W 119°39'712.1
2017-Nov-22 20:55N 34°02' W 119°38'3 6.9
2017-Nov-22 20:26N 34°05' W 119°41'2 5.2
2017-Nov-22 20:00N 34°07' W 119°42'1 1.7
2017-Nov-22 19:14N 34°07' W 119°43'  
2017-Nov-20 00:17N 34°24' W 119°42'0 0.0
2017-Nov-19 23:50N 34°24' W 119°42'0 0.0
2017-Nov-19 23:26N 34°24' W 119°42'0 0.0
2017-Nov-19 22:20N 34°24' W 119°42'1 2.8
2017-Nov-19 21:59N 34°24' W 119°41'1019.5
2017-Nov-19 21:28N 34°14' W 119°44'814.4
2017-Nov-19 20:56N 34°07' W 119°49'0 1.0
2017-Nov-19 20:29N 34°07' W 119°49'1 2.2
2017-Nov-19 19:55N 34°06' W 119°48'2 5.1
2017-Nov-19 19:30N 34°07' W 119°45'713.8
2017-Nov-19 19:00N 34°13' W 119°49'816.6
2017-Nov-19 18:30N 34°20' W 119°44'5 4.4
2017-Nov-19 17:25N 34°24' W 119°42'0 0.0
2017-Nov-19 16:46N 34°24' W 119°42'0 0.0
2017-Nov-19 16:19N 34°24' W 119°42'0 0.0
2017-Nov-19 11:22N 34°24' W 119°42'0 0.0
2017-Nov-19 09:49N 34°24' W 119°42'0 0.0
2017-Nov-19 08:11N 34°24' W 119°42'0 0.0
2017-Nov-19 07:13N 34°24' W 119°42'0 0.0
2017-Nov-19 02:40N 34°24' W 119°42'0 0.3
2017-Nov-19 00:53N 34°24' W 119°41'1 3.5
2017-Nov-19 00:30N 34°25' W 119°39'2 3.3
2017-Nov-18 23:57N 34°24' W 119°37'3 5.9
2017-Nov-18 23:30N 34°24' W 119°40'1 1.0
2017-Nov-18 22:35N 34°24' W 119°42'0 1.4
2017-Nov-18 22:30N 34°24' W 119°41'916.3
2017-Nov-18 21:57N 34°16' W 119°46'818.7
2017-Nov-18 21:30N 34°09' W 119°51'4 6.5
2017-Nov-18 20:55N 34°05' W 119°52'2 4.9
2017-Nov-18 20:28N 34°07' W 119°52'1 2.8
2017-Nov-18 19:59N 34°08' W 119°50'1 1.8
2017-Nov-18 19:28N 34°08' W 119°51'610.5
2017-Nov-18 18:52N 34°14' W 119°50'717.7
2017-Nov-18 18:29N 34°20' W 119°45'5 1.1
2017-Nov-18 13:39N 34°24' W 119°42'0 0.0
2017-Nov-18 06:24N 34°24' W 119°42'0 0.0
2017-Nov-18 02:30N 34°24' W 119°42'0 0.0
2017-Nov-18 01:07N 34°24' W 119°42'0 0.0
2017-Nov-17 18:30N 34°24' W 119°42'0 0.0
2017-Nov-17 15:54N 34°24' W 119°42'0 0.0
2017-Nov-17 14:40N 34°24' W 119°42'0 0.0
2017-Nov-17 14:30N 34°24' W 119°42'0 0.0
2017-Nov-17 13:24N 34°24' W 119°42'0 0.0
2017-Nov-17 03:43N 34°24' W 119°42'0 0.0
2017-Nov-17 02:15N 34°24' W 119°42'0 0.0
2017-Nov-16 22:36N 34°24' W 119°42'0 1.7
2017-Nov-16 22:19N 34°24' W 119°41'618.4
2017-Nov-16 21:59N 34°19' W 119°39'918.9
2017-Nov-16 21:30N 34°10' W 119°36'916.9
2017-Nov-16 20:59N 34°03' W 119°29'2 3.7
2017-Nov-16 20:29N 34°03' W 119°26'4 7.6
2017-Nov-16 19:58N 34°06' W 119°29'5 9.9
2017-Nov-16 19:27N 34°10' W 119°33'611.5
2017-Nov-16 18:55N 34°16' W 119°34'512.6
2017-Nov-16 18:29N 34°21' W 119°38'5 7.6
2017-Nov-16 17:51N 34°24' W 119°42'0 0.0
2017-Nov-16 17:24N 34°24' W 119°42'0 0.0
2017-Nov-16 16:54N 34°24' W 119°42'0 0.0
2017-Nov-16 14:45N 34°24' W 119°42'0 0.0
2017-Nov-16 13:30N 34°24' W 119°42'0 0.0
2017-Nov-16 12:57N 34°24' W 119°42'0 0.0
2017-Nov-16 12:30N 34°24' W 119°42'0 0.0
2017-Nov-16 11:54N 34°24' W 119°42'0 0.0
2017-Nov-16 09:18N 34°24' W 119°42'0 0.0
2017-Nov-16 08:54N 34°24' W 119°42'0 0.0
2017-Nov-16 08:09N 34°24' W 119°42'0 0.0
2017-Nov-16 06:21N 34°24' W 119°42'0 0.0
2017-Nov-16 05:54N 34°24' W 119°42'0 0.0
2017-Nov-16 05:30N 34°24' W 119°42'0 0.0
2017-Nov-16 04:54N 34°24' W 119°42'0 0.0
2017-Nov-16 04:30N 34°24' W 119°42'0 0.0
2017-Nov-16 03:57N 34°24' W 119°42'0 0.0
2017-Nov-16 03:21N 34°24' W 119°42'0 0.0
2017-Nov-16 02:06N 34°24' W 119°42'0 0.0
2017-Nov-16 01:48N 34°24' W 119°42'0 0.0
2017-Nov-16 01:18N 34°24' W 119°42'0 0.0
2017-Nov-16 01:00N 34°24' W 119°42'0 0.0
2017-Nov-15 23:54N 34°24' W 119°42'0 0.0
2017-Nov-15 23:30N 34°24' W 119°42'0 0.0
2017-Nov-15 22:58N 34°24' W 119°42'0 0.4
2017-Nov-15 22:28N 34°24' W 119°42'3 5.3
2017-Nov-15 21:55N 34°22' W 119°39'918.2
2017-Nov-15 21:24N 34°13' W 119°36'717.6
2017-Nov-15 21:00N 34°06' W 119°35'1 1.7
2017-Nov-15 20:19N 34°06' W 119°36'616.8
2017-Nov-15 19:59N 34°11' W 119°34'813.9
2017-Nov-15 19:26N 34°19' W 119°34'1 2.5
2017-Nov-15 18:59N 34°20' W 119°33'4 7.7
2017-Nov-15 18:28N 34°21' W 119°38'4 1.0
2017-Nov-15 14:12N 34°24' W 119°42'0 0.0
2017-Nov-15 13:54N 34°24' W 119°42'0 0.0
2017-Nov-15 13:30N 34°24' W 119°42'0 0.0
2017-Nov-15 10:51N 34°24' W 119°42'0 0.0
2017-Nov-15 10:30N 34°24' W 119°42'0 0.0
2017-Nov-15 09:48N 34°24' W 119°42'0 0.0
2017-Nov-15 09:30N 34°24' W 119°42'0 0.0
2017-Nov-15 07:57N 34°24' W 119°42'0 0.0
2017-Nov-15 07:30N 34°24' W 119°42'0 0.0
2017-Nov-15 06:45N 34°24' W 119°42'0 0.0
2017-Nov-15 06:21N 34°24' W 119°42'0 0.0
2017-Nov-15 04:21N 34°24' W 119°42'0 0.0
2017-Nov-15 01:33N 34°24' W 119°42'0 0.0
2017-Nov-14 20:21N 34°24' W 119°42'0 0.0
2017-Nov-14 19:33N 34°24' W 119°42'0 0.0
2017-Nov-14 19:21N 34°24' W 119°42'0 0.0
2017-Nov-14 16:45N 34°24' W 119°42'0 0.0
2017-Nov-14 16:30N 34°24' W 119°42'0 0.0
2017-Nov-14 15:51N 34°24' W 119°42'0 0.0
2017-Nov-14 15:27N 34°24' W 119°42'0 0.0
2017-Nov-14 12:42N 34°24' W 119°42'  
Track history (hours):
 
Tides and Currents Weather Stations Pressure Air Temp Water Temp Dewpoint Dewpoint Depression Visibility Wind Speed Wind Dir Waves Ship Positions

Condor Express

Owner: H & M Landing Inc, Santa Barbara, CA. More information available from US FCC via Universal Licensing System and Coast Guard Vessel Documentation Center.

Last reported at 2017-Nov-24 10:58 UTC. Time now 2017-Nov-24 11:06 UTC.
Position N 34°24' W 119°42'.

Type: Ship. MMSI: 367568350.

Date/timePositionNaut miles runAvg speedWind from/ knotsBaromVisibWave heightAir tempDewpointWater temp
2017-Nov-24 10:58N 34°24' W 119°42'0 0.0
2017-Nov-24 10:28N 34°24' W 119°42'0 0.0
2017-Nov-24 09:19N 34°24' W 119°42'0 0.0
2017-Nov-24 08:16N 34°24' W 119°42'0 0.0
2017-Nov-24 06:55N 34°24' W 119°42'0 0.0
2017-Nov-24 05:31N 34°24' W 119°42'0 0.0
2017-Nov-24 05:25N 34°24' W 119°42'0 0.0
2017-Nov-24 04:52N 34°24' W 119°42'0 0.0
2017-Nov-24 04:13N 34°24' W 119°42'0 0.0
2017-Nov-24 03:49N 34°24' W 119°42'0 0.0
2017-Nov-24 03:07N 34°24' W 119°42'0 0.0
2017-Nov-24 02:40N 34°24' W 119°42'0 0.0
2017-Nov-24 02:10N 34°24' W 119°42'0 0.0
2017-Nov-24 01:07N 34°24' W 119°42'0 0.0
2017-Nov-24 00:25N 34°24' W 119°42'0 0.0
2017-Nov-23 23:49N 34°24' W 119°42'0 0.0
2017-Nov-23 20:19N 34°24' W 119°42'0 0.0
2017-Nov-23 18:25N 34°24' W 119°42'0 0.0
2017-Nov-23 16:16N 34°24' W 119°42'0 0.0
2017-Nov-23 15:40N 34°24' W 119°42'0 0.0
2017-Nov-23 15:25N 34°24' W 119°42'0 0.0
2017-Nov-23 14:55N 34°24' W 119°42'0 0.0
2017-Nov-23 10:40N 34°24' W 119°42'0 0.0
2017-Nov-23 10:16N 34°24' W 119°42'0 0.0
2017-Nov-23 08:37N 34°24' W 119°42'0 0.0
2017-Nov-23 08:07N 34°24' W 119°42'0 0.0
2017-Nov-23 07:58N 34°24' W 119°42'0 0.0
2017-Nov-23 07:16N 34°24' W 119°42'0 0.0
2017-Nov-23 05:22N 34°24' W 119°42'0 0.0
2017-Nov-23 04:52N 34°24' W 119°42'0 0.0
2017-Nov-23 04:04N 34°24' W 119°42'0 0.0
2017-Nov-23 03:55N 34°24' W 119°42'0 0.0
2017-Nov-23 03:22N 34°24' W 119°42'0 0.0
2017-Nov-23 02:58N 34°24' W 119°42'0 0.0
2017-Nov-23 02:16N 34°24' W 119°42'0 0.0
2017-Nov-23 01:52N 34°24' W 119°42'0 0.0
2017-Nov-23 00:22N 34°24' W 119°42'0 0.0
2017-Nov-22 23:28N 34°24' W 119°42'0 0.1
2017-Nov-22 22:39N 34°24' W 119°41'2 5.5
2017-Nov-22 22:22N 34°23' W 119°42'512.8
2017-Nov-22 21:57N 34°18' W 119°40'918.3
2017-Nov-22 21:29N 34°09' W 119°39'712.1
2017-Nov-22 20:55N 34°02' W 119°38'3 6.9
2017-Nov-22 20:26N 34°05' W 119°41'2 5.2
2017-Nov-22 20:00N 34°07' W 119°42'1 1.7
2017-Nov-22 19:14N 34°07' W 119°43'  
2017-Nov-20 00:17N 34°24' W 119°42'0 0.0
2017-Nov-19 23:50N 34°24' W 119°42'0 0.0
2017-Nov-19 23:26N 34°24' W 119°42'0 0.0
2017-Nov-19 22:20N 34°24' W 119°42'1 2.8
2017-Nov-19 21:59N 34°24' W 119°41'1019.5
2017-Nov-19 21:28N 34°14' W 119°44'814.4
2017-Nov-19 20:56N 34°07' W 119°49'0 1.0
2017-Nov-19 20:29N 34°07' W 119°49'1 2.2
2017-Nov-19 19:55N 34°06' W 119°48'2 5.1
2017-Nov-19 19:30N 34°07' W 119°45'713.8
2017-Nov-19 19:00N 34°13' W 119°49'816.6
2017-Nov-19 18:30N 34°20' W 119°44'5 4.4
2017-Nov-19 17:25N 34°24' W 119°42'0 0.0
2017-Nov-19 16:46N 34°24' W 119°42'0 0.0
2017-Nov-19 16:19N 34°24' W 119°42'0 0.0
2017-Nov-19 11:22N 34°24' W 119°42'0 0.0
2017-Nov-19 09:49N 34°24' W 119°42'0 0.0
2017-Nov-19 08:11N 34°24' W 119°42'0 0.0
2017-Nov-19 07:13N 34°24' W 119°42'0 0.0
2017-Nov-19 02:40N 34°24' W 119°42'0 0.3
2017-Nov-19 00:53N 34°24' W 119°41'1 3.5
2017-Nov-19 00:30N 34°25' W 119°39'2 3.3
2017-Nov-18 23:57N 34°24' W 119°37'3 5.9
2017-Nov-18 23:30N 34°24' W 119°40'1 1.0
2017-Nov-18 22:35N 34°24' W 119°42'0 1.4
2017-Nov-18 22:30N 34°24' W 119°41'916.3
2017-Nov-18 21:57N 34°16' W 119°46'818.7
2017-Nov-18 21:30N 34°09' W 119°51'4 6.5
2017-Nov-18 20:55N 34°05' W 119°52'2 4.9
2017-Nov-18 20:28N 34°07' W 119°52'1 2.8
2017-Nov-18 19:59N 34°08' W 119°50'1 1.8
2017-Nov-18 19:28N 34°08' W 119°51'610.5
2017-Nov-18 18:52N 34°14' W 119°50'717.7
2017-Nov-18 18:29N 34°20' W 119°45'5 1.1
2017-Nov-18 13:39N 34°24' W 119°42'0 0.0
2017-Nov-18 06:24N 34°24' W 119°42'0 0.0
2017-Nov-18 02:30N 34°24' W 119°42'0 0.0
2017-Nov-18 01:07N 34°24' W 119°42'0 0.0
2017-Nov-17 18:30N 34°24' W 119°42'0 0.0
2017-Nov-17 15:54N 34°24' W 119°42'0 0.0
2017-Nov-17 14:40N 34°24' W 119°42'0 0.0
2017-Nov-17 14:30N 34°24' W 119°42'0 0.0
2017-Nov-17 13:24N 34°24' W 119°42'0 0.0
2017-Nov-17 03:43N 34°24' W 119°42'0 0.0
2017-Nov-17 02:15N 34°24' W 119°42'0 0.0
2017-Nov-16 22:36N 34°24' W 119°42'0 1.7
2017-Nov-16 22:19N 34°24' W 119°41'618.4
2017-Nov-16 21:59N 34°19' W 119°39'918.9
2017-Nov-16 21:30N 34°10' W 119°36'916.9
2017-Nov-16 20:59N 34°03' W 119°29'2 3.7
2017-Nov-16 20:29N 34°03' W 119°26'4 7.6
2017-Nov-16 19:58N 34°06' W 119°29'5 9.9
2017-Nov-16 19:27N 34°10' W 119°33'611.5
2017-Nov-16 18:55N 34°16' W 119°34'512.6
2017-Nov-16 18:29N 34°21' W 119°38'5 7.6
2017-Nov-16 17:51N 34°24' W 119°42'0 0.0
2017-Nov-16 17:24N 34°24' W 119°42'0 0.0
2017-Nov-16 16:54N 34°24' W 119°42'0 0.0
2017-Nov-16 14:45N 34°24' W 119°42'0 0.0
2017-Nov-16 13:30N 34°24' W 119°42'0 0.0
2017-Nov-16 12:57N 34°24' W 119°42'0 0.0
2017-Nov-16 12:30N 34°24' W 119°42'0 0.0
2017-Nov-16 11:54N 34°24' W 119°42'0 0.0
2017-Nov-16 09:18N 34°24' W 119°42'0 0.0
2017-Nov-16 08:54N 34°24' W 119°42'0 0.0
2017-Nov-16 08:09N 34°24' W 119°42'0 0.0
2017-Nov-16 06:21N 34°24' W 119°42'0 0.0
2017-Nov-16 05:54N 34°24' W 119°42'0 0.0
2017-Nov-16 05:30N 34°24' W 119°42'0 0.0
2017-Nov-16 04:54N 34°24' W 119°42'0 0.0
2017-Nov-16 04:30N 34°24' W 119°42'0 0.0
2017-Nov-16 03:57N 34°24' W 119°42'0 0.0
2017-Nov-16 03:21N 34°24' W 119°42'0 0.0
2017-Nov-16 02:06N 34°24' W 119°42'0 0.0
2017-Nov-16 01:48N 34°24' W 119°42'0 0.0
2017-Nov-16 01:18N 34°24' W 119°42'0 0.0
2017-Nov-16 01:00N 34°24' W 119°42'0 0.0
2017-Nov-15 23:54N 34°24' W 119°42'0 0.0
2017-Nov-15 23:30N 34°24' W 119°42'0 0.0
2017-Nov-15 22:58N 34°24' W 119°42'0 0.4
2017-Nov-15 22:28N 34°24' W 119°42'3 5.3
2017-Nov-15 21:55N 34°22' W 119°39'918.2
2017-Nov-15 21:24N 34°13' W 119°36'717.6
2017-Nov-15 21:00N 34°06' W 119°35'1 1.7
2017-Nov-15 20:19N 34°06' W 119°36'616.8
2017-Nov-15 19:59N 34°11' W 119°34'813.9
2017-Nov-15 19:26N 34°19' W 119°34'1 2.5
2017-Nov-15 18:59N 34°20' W 119°33'4 7.7
2017-Nov-15 18:28N 34°21' W 119°38'4 1.0
2017-Nov-15 14:12N 34°24' W 119°42'0 0.0
2017-Nov-15 13:54N 34°24' W 119°42'0 0.0
2017-Nov-15 13:30N 34°24' W 119°42'0 0.0
2017-Nov-15 10:51N 34°24' W 119°42'0 0.0
2017-Nov-15 10:30N 34°24' W 119°42'0 0.0
2017-Nov-15 09:48N 34°24' W 119°42'0 0.0
2017-Nov-15 09:30N 34°24' W 119°42'0 0.0
2017-Nov-15 07:57N 34°24' W 119°42'0 0.0
2017-Nov-15 07:30N 34°24' W 119°42'0 0.0
2017-Nov-15 06:45N 34°24' W 119°42'0 0.0
2017-Nov-15 06:21N 34°24' W 119°42'0 0.0
2017-Nov-15 04:21N 34°24' W 119°42'0 0.0
2017-Nov-15 01:33N 34°24' W 119°42'0 0.0
2017-Nov-14 20:21N 34°24' W 119°42'0 0.0
2017-Nov-14 19:33N 34°24' W 119°42'0 0.0
2017-Nov-14 19:21N 34°24' W 119°42'0 0.0
2017-Nov-14 16:45N 34°24' W 119°42'0 0.0
2017-Nov-14 16:30N 34°24' W 119°42'0 0.0
2017-Nov-14 15:51N 34°24' W 119°42'0 0.0
2017-Nov-14 15:27N 34°24' W 119°42'0 0.0
2017-Nov-14 12:42N 34°24' W 119°42'  

Dump ship's entire track history